Time;durP1;ratioP1;P1;durP2;ratioP2;P2;SDS_P1;SDS_P2;PMS_P1;PMS_P2;Temp;Humidity;BMP_temperature;BMP_pressure;BME280_temperature;BME280_humidity;BME280_pressure;Samples;Min_cycle;Max_cycle;Signal;HPM_P1;HPM_P2
2021/06/20 00:01:54;;;;;;;13.43;6.45;;;;;;;;;;6293683;28;20054;-85
2021/06/20 00:04:55;;;;;;;11.88;6.72;;;;;;;;;;6298509;28;20060;-85
2021/06/20 00:08:15;;;;;;;9.52;6.60;;;;;;;;;;6299944;28;20108;-86
2021/06/20 00:11:17;;;;;;;11.15;7.03;;;;;;;;;;6286434;28;20047;-85
2021/06/20 00:14:18;;;;;;;8.35;6.10;;;;;;;;;;6258522;28;20406;-85
2021/06/20 00:17:20;;;;;;;13.57;6.80;;;;;;;;;;6275072;28;20045;-85
2021/06/20 00:20:25;;;;;;;11.25;6.82;;;;;;;;;;6240016;28;20448;-85
2021/06/20 00:23:26;;;;;;;14.07;7.30;;;;;;;;;;6259281;28;20494;-86
2021/06/20 00:26:28;;;;;;;12.18;7.43;;;;;;;;;;6264177;28;20049;-86
2021/06/20 00:29:30;;;;;;;9.13;5.23;;;;;;;;;;6277102;28;20127;-85
2021/06/20 00:32:31;;;;;;;10.25;5.22;;;;;;;;;;6269301;28;20033;-86
2021/06/20 00:35:33;;;;;;;10.02;5.05;;;;;;;;;;6264139;28;20054;-87
2021/06/20 00:38:35;;;;;;;7.35;3.85;;;;;;;;;;6247410;28;20123;-86
2021/06/20 00:41:38;;;;;;;7.35;4.47;;;;;;;;;;6265012;28;20044;-86
2021/06/20 00:44:48;;;;;;;8.45;4.18;;;;;;;;;;6313801;28;20044;-86
2021/06/20 00:47:53;;;;;;;5.70;3.75;;;;;;;;;;6285967;28;20128;-87
2021/06/20 00:50:55;;;;;;;4.57;3.92;;;;;;;;;;6304762;28;20040;-86
2021/06/20 00:53:57;;;;;;;6.60;4.10;;;;;;;;;;6288820;28;20063;-87
2021/06/20 00:56:59;;;;;;;5.75;3.95;;;;;;;;;;6259506;28;20052;-87
2021/06/20 01:00:01;;;;;;;6.90;4.22;;;;;;;;;;6238257;28;20045;-86
2021/06/20 01:03:04;;;;;;;9.40;4.50;;;;;;;;;;6254405;28;20049;-87
2021/06/20 01:06:07;;;;;;;9.50;4.05;;;;;;;;;;6240973;28;20848;-87
2021/06/20 01:09:08;;;;;;;8.70;4.50;;;;;;;;;;6271668;28;20124;-87
2021/06/20 01:12:11;;;;;;;6.78;4.68;;;;;;;;;;6274244;28;20553;-87
2021/06/20 01:15:14;;;;;;;7.60;4.80;;;;;;;;;;6245853;28;20052;-87
2021/06/20 01:18:18;;;;;;;6.82;4.80;;;;;;;;;;6283175;28;20040;-87
2021/06/20 01:21:20;;;;;;;7.75;4.72;;;;;;;;;;6285763;28;20473;-87
2021/06/20 01:24:22;;;;;;;7.28;4.28;;;;;;;;;;6278712;28;20167;-85
2021/06/20 01:27:29;;;;;;;8.38;4.50;;;;;;;;;;6282132;28;20048;-87
2021/06/20 01:30:34;;;;;;;9.18;4.53;;;;;;;;;;6257242;28;20040;-87
2021/06/20 01:33:36;;;;;;;9.35;4.90;;;;;;;;;;6259271;28;20052;-86
2021/06/20 01:36:38;;;;;;;8.80;5.10;;;;;;;;;;6285006;28;20115;-86
2021/06/20 01:39:41;;;;;;;6.57;4.90;;;;;;;;;;6249700;28;20076;-86
2021/06/20 01:42:44;;;;;;;12.13;5.22;;;;;;;;;;6297557;28;20044;-86
2021/06/20 01:45:45;;;;;;;11.35;5.07;;;;;;;;;;6294441;28;20134;-87
2021/06/20 01:48:47;;;;;;;6.10;4.75;;;;;;;;;;6274809;28;20053;-85
2021/06/20 01:51:50;;;;;;;8.68;4.50;;;;;;;;;;6242218;28;20045;-85
2021/06/20 01:54:53;;;;;;;9.80;4.80;;;;;;;;;;6267271;28;20077;-86
2021/06/20 01:57:55;;;;;;;6.35;3.50;;;;;;;;;;6255520;28;20105;-86
2021/06/20 02:00:57;;;;;;;10.70;4.05;;;;;;;;;;6274393;28;20484;-86
2021/06/20 02:03:59;;;;;;;5.63;3.50;;;;;;;;;;6275133;28;20041;-85
2021/06/20 02:07:01;;;;;;;6.13;3.58;;;;;;;;;;6290221;28;20053;-85
2021/06/20 02:10:09;;;;;;;8.55;3.38;;;;;;;;;;6274274;28;20068;-85
2021/06/20 02:13:10;;;;;;;5.85;3.55;;;;;;;;;;6278484;28;20049;-84
2021/06/20 02:16:12;;;;;;;9.57;3.65;;;;;;;;;;6294401;28;20409;-85
2021/06/20 02:19:14;;;;;;;9.02;3.90;;;;;;;;;;6269884;28;20051;-85
2021/06/20 02:22:16;;;;;;;8.52;3.67;;;;;;;;;;6241082;28;20045;-84
2021/06/20 02:25:36;;;;;;;11.70;4.10;;;;;;;;;;6276764;28;20098;-84
2021/06/20 02:28:38;;;;;;;5.97;3.72;;;;;;;;;;6267123;28;20127;-85
2021/06/20 02:31:39;;;;;;;10.63;4.03;;;;;;;;;;6301099;28;20051;-83
2021/06/20 02:34:41;;;;;;;9.43;4.00;;;;;;;;;;6300940;28;20123;-84
2021/06/20 02:37:47;;;;;;;10.30;4.13;;;;;;;;;;6284442;28;20112;-84
2021/06/20 02:40:48;;;;;;;9.45;4.90;;;;;;;;;;6292221;28;20095;-84
2021/06/20 02:43:50;;;;;;;8.98;4.45;;;;;;;;;;6328060;28;20048;-85
2021/06/20 02:46:52;;;;;;;8.25;5.18;;;;;;;;;;6301575;28;20102;-85
2021/06/20 02:49:54;;;;;;;9.15;4.85;;;;;;;;;;6254051;28;20045;-85
2021/06/20 02:52:55;;;;;;;9.82;5.07;;;;;;;;;;6260371;28;20493;-84
2021/06/20 02:55:57;;;;;;;13.38;5.75;;;;;;;;;;6278439;28;20053;-84
2021/06/20 02:58:59;;;;;;;8.55;5.03;;;;;;;;;;6293057;28;20412;-84
2021/06/20 03:02:00;;;;;;;8.05;5.18;;;;;;;;;;6275705;28;20187;-84
2021/06/20 03:05:03;;;;;;;12.43;4.82;;;;;;;;;;6272853;28;20048;-84
2021/06/20 03:08:04;;;;;;;11.10;4.82;;;;;;;;;;6293118;28;20076;-85
2021/06/20 03:11:06;;;;;;;10.88;5.15;;;;;;;;;;6289582;28;20405;-84
2021/06/20 03:14:10;;;;;;;15.43;5.00;;;;;;;;;;6308457;28;20048;-84
2021/06/20 03:17:13;;;;;;;10.93;4.78;;;;;;;;;;6291885;28;20036;-84
2021/06/20 03:20:15;;;;;;;8.52;5.18;;;;;;;;;;6312957;28;20128;-84
2021/06/20 03:23:17;;;;;;;9.35;5.05;;;;;;;;;;6283692;28;20079;-85
2021/06/20 03:26:18;;;;;;;8.98;4.25;;;;;;;;;;6255220;28;20083;-84
2021/06/20 03:29:20;;;;;;;8.70;5.13;;;;;;;;;;6275619;28;20052;-84
2021/06/20 03:32:22;;;;;;;10.88;5.20;;;;;;;;;;6240878;28;20102;-84
2021/06/20 03:35:23;;;;;;;11.18;5.18;;;;;;;;;;6293851;28;20688;-85
2021/06/20 03:38:25;;;;;;;11.82;5.03;;;;;;;;;;6296852;28;20582;-84
2021/06/20 03:41:27;;;;;;;11.88;5.13;;;;;;;;;;6305877;28;20069;-85
2021/06/20 03:44:29;;;;;;;10.00;4.70;;;;;;;;;;6289120;28;20046;-84
2021/06/20 03:47:30;;;;;;;12.13;4.97;;;;;;;;;;6279668;28;20104;-84
2021/06/20 03:50:32;;;;;;;9.18;4.88;;;;;;;;;;6306892;28;20052;-84
2021/06/20 03:53:34;;;;;;;11.57;4.97;;;;;;;;;;6304261;28;20059;-84
2021/06/20 03:56:36;;;;;;;8.05;4.43;;;;;;;;;;6303720;28;20036;-84
2021/06/20 03:59:38;;;;;;;13.63;4.97;;;;;;;;;;6305419;28;20065;-85
2021/06/20 04:02:40;;;;;;;12.52;5.30;;;;;;;;;;6305771;28;20139;-84
2021/06/20 04:05:41;;;;;;;12.65;5.60;;;;;;;;;;6281164;28;20086;-85
2021/06/20 04:08:43;;;;;;;12.55;5.57;;;;;;;;;;6266911;28;20113;-84
2021/06/20 04:11:47;;;;;;;12.75;4.88;;;;;;;;;;6266582;28;20138;-83
2021/06/20 04:14:48;;;;;;;14.75;5.68;;;;;;;;;;6274417;28;20048;-84
2021/06/20 04:17:50;;;;;;;15.27;5.55;;;;;;;;;;6274554;28;20140;-84
2021/06/20 04:20:51;;;;;;;15.15;6.35;;;;;;;;;;6254341;28;20641;-84
2021/06/20 04:23:53;;;;;;;13.68;5.65;;;;;;;;;;6272306;28;20037;-84
2021/06/20 04:26:55;;;;;;;15.75;5.78;;;;;;;;;;6261714;28;20114;-85
2021/06/20 04:29:57;;;;;;;12.05;5.45;;;;;;;;;;6272078;28;20052;-84
2021/06/20 04:32:59;;;;;;;9.77;6.05;;;;;;;;;;6272466;28;20059;-84
2021/06/20 04:36:01;;;;;;;11.00;5.85;;;;;;;;;;6273645;28;20680;-85
2021/06/20 04:39:07;;;;;;;12.80;5.18;;;;;;;;;;6287343;28;20544;-83
2021/06/20 04:42:10;;;;;;;9.95;4.97;;;;;;;;;;6251565;28;20553;-84
2021/06/20 04:45:13;;;;;;;;;;;;;;;;;;6247744;28;20073;-83
2021/06/20 04:48:16;;;;;;;9.93;5.15;;;;;;;;;;6249924;28;20277;-84
2021/06/20 04:51:18;;;;;;;10.65;5.28;;;;;;;;;;6289812;28;20496;-84
2021/06/20 04:54:19;;;;;;;8.75;4.85;;;;;;;;;;6290802;28;20040;-84
2021/06/20 04:57:27;;;;;;;11.13;5.28;;;;;;;;;;6240302;28;20518;-84
2021/06/20 05:00:28;;;;;;;10.43;5.20;;;;;;;;;;6257665;28;20422;-83
2021/06/20 05:03:30;;;;;;;12.50;4.60;;;;;;;;;;6258738;28;20040;-83
2021/06/20 05:06:32;;;;;;;10.80;5.07;;;;;;;;;;6291225;28;20083;-84
2021/06/20 05:09:34;;;;;;;9.68;4.57;;;;;;;;;;6290843;28;20045;-85
2021/06/20 05:12:36;;;;;;;10.15;4.63;;;;;;;;;;6272229;28;20045;-84
2021/06/20 05:15:38;;;;;;;12.70;4.70;;;;;;;;;;6274756;28;20040;-84
2021/06/20 05:18:39;;;;;;;9.35;4.70;;;;;;;;;;6273060;28;20040;-84
2021/06/20 05:21:41;;;;;;;10.93;4.85;;;;;;;;;;6275865;28;20047;-83
2021/06/20 05:24:43;;;;;;;10.85;4.63;;;;;;;;;;6268371;28;20041;-84
2021/06/20 05:27:44;;;;;;;8.15;4.53;;;;;;;;;;6258869;28;20506;-83
2021/06/20 05:30:46;;;;;;;7.50;4.53;;;;;;;;;;6271418;28;20100;-84
2021/06/20 05:33:48;;;;;;;8.73;3.97;;;;;;;;;;6264384;28;20128;-80
2021/06/20 05:36:49;;;;;;;7.28;4.50;;;;;;;;;;6274752;28;20125;-80
2021/06/20 05:39:51;;;;;;;6.55;4.30;;;;;;;;;;6261984;28;20040;-79
2021/06/20 05:42:53;;;;;;;6.88;4.32;;;;;;;;;;6285980;28;20052;-79
2021/06/20 05:45:54;;;;;;;7.60;3.97;;;;;;;;;;6297093;28;20045;-80
2021/06/20 05:48:57;;;;;;;5.88;3.67;;;;;;;;;;6254166;28;20127;-79
2021/06/20 05:51:59;;;;;;;6.00;3.95;;;;;;;;;;6237917;28;20051;-80
2021/06/20 05:55:01;;;;;;;9.18;3.72;;;;;;;;;;6254325;28;20055;-80
2021/06/20 05:58:03;;;;;;;8.05;3.67;;;;;;;;;;6301117;28;20786;-78
2021/06/20 06:01:05;;;;;;;4.40;3.38;;;;;;;;;;6274225;28;20135;-78
2021/06/20 06:04:07;;;;;;;7.53;3.53;;;;;;;;;;6296755;28;20056;-78
2021/06/20 06:07:08;;;;;;;8.18;3.50;;;;;;;;;;6302318;28;20104;-80
2021/06/20 06:10:10;;;;;;;6.65;3.08;;;;;;;;;;6298953;28;20099;-81
2021/06/20 06:13:12;;;;;;;7.97;3.30;;;;;;;;;;6302628;28;20051;-81
2021/06/20 06:16:14;;;;;;;8.23;3.15;;;;;;;;;;6301102;28;20040;-80
2021/06/20 06:19:18;;;;;;;5.07;2.88;;;;;;;;;;6291952;28;20078;-79
2021/06/20 06:22:21;;;;;;;6.40;3.15;;;;;;;;;;6294102;28;20064;-80
2021/06/20 06:25:23;;;;;;;6.13;2.92;;;;;;;;;;6273177;28;20041;-80
2021/06/20 06:28:25;;;;;;;6.43;2.80;;;;;;;;;;6287141;28;20052;-78
2021/06/20 06:31:26;;;;;;;4.85;3.10;;;;;;;;;;6274575;28;20061;-80
2021/06/20 06:34:28;;;;;;;5.88;2.55;;;;;;;;;;6308175;28;20041;-81
2021/06/20 06:37:30;;;;;;;6.28;2.90;;;;;;;;;;6284289;28;20127;-79
2021/06/20 06:40:31;;;;;;;6.90;2.70;;;;;;;;;;6285758;28;20112;-79
2021/06/20 06:43:33;;;;;;;4.78;2.50;;;;;;;;;;6306580;28;20064;-79
2021/06/20 06:46:35;;;;;;;4.38;2.35;;;;;;;;;;6315343;28;20100;-79
2021/06/20 06:49:36;;;;;;;5.60;2.28;;;;;;;;;;6297305;28;20036;-80
2021/06/20 06:52:38;;;;;;;3.50;2.42;;;;;;;;;;6325350;28;20097;-83
2021/06/20 06:55:40;;;;;;;4.30;2.85;;;;;;;;;;6294182;28;20054;-82
2021/06/20 06:58:41;;;;;;;4.65;2.78;;;;;;;;;;6267868;28;20760;-81
2021/06/20 07:01:43;;;;;;;3.78;2.55;;;;;;;;;;6297078;28;20467;-81
2021/06/20 07:04:47;;;;;;;4.95;2.38;;;;;;;;;;6280064;28;20049;-81
2021/06/20 07:07:54;;;;;;;5.13;2.70;;;;;;;;;;6299728;28;20066;-81
2021/06/20 07:10:55;;;;;;;4.68;2.50;;;;;;;;;;6305563;28;20046;-80
2021/06/20 07:13:59;;;;;;;4.15;2.60;;;;;;;;;;6326498;28;20044;-81
2021/06/20 07:17:04;;;;;;;5.32;2.70;;;;;;;;;;6325734;28;20064;-81
2021/06/20 07:20:15;;;;;;;6.63;2.72;;;;;;;;;;6323022;28;20055;-82
2021/06/20 07:23:17;;;;;;;3.45;2.70;;;;;;;;;;6291725;28;20121;-79
2021/06/20 07:26:20;;;;;;;5.05;2.65;;;;;;;;;;6282076;28;20048;-83
2021/06/20 07:29:24;;;;;;;3.38;2.35;;;;;;;;;;6278524;28;20053;-81
2021/06/20 07:32:26;;;;;;;4.45;2.60;;;;;;;;;;6293155;28;20112;-82
2021/06/20 07:35:28;;;;;;;4.05;2.70;;;;;;;;;;6293554;28;20130;-81
2021/06/20 07:38:29;;;;;;;4.53;2.60;;;;;;;;;;6295069;28;20051;-82
2021/06/20 07:41:31;;;;;;;2.50;2.27;;;;;;;;;;6292866;28;20104;-82
2021/06/20 07:44:33;;;;;;;5.28;2.67;;;;;;;;;;6304356;28;20040;-80
2021/06/20 07:47:36;;;;;;;2.70;2.40;;;;;;;;;;6285553;28;20053;-83
2021/06/20 07:50:38;;;;;;;2.85;2.47;;;;;;;;;;6302530;28;20124;-81
2021/06/20 07:53:40;;;;;;;4.28;2.45;;;;;;;;;;6310097;28;20047;-80
2021/06/20 07:56:42;;;;;;;4.85;2.90;;;;;;;;;;6311753;28;20138;-82
2021/06/20 07:59:45;;;;;;;3.08;2.78;;;;;;;;;;6305484;28;20076;-83
2021/06/20 08:02:47;;;;;;;2.70;2.50;;;;;;;;;;6308035;28;20429;-81
2021/06/20 08:05:49;;;;;;;4.00;2.53;;;;;;;;;;6293152;28;20066;-81
2021/06/20 08:08:57;;;;;;;6.73;2.50;;;;;;;;;;6298121;28;20104;-82
2021/06/20 08:11:59;;;;;;;4.05;2.05;;;;;;;;;;6332057;28;20124;-82
2021/06/20 08:15:01;;;;;;;3.35;2.70;;;;;;;;;;6307620;28;20123;-82
2021/06/20 08:18:04;;;;;;;3.38;2.65;;;;;;;;;;6279006;28;20082;-82
2021/06/20 08:21:05;;;;;;;4.13;3.25;;;;;;;;;;6281357;28;20055;-81
2021/06/20 08:24:07;;;;;;;2.85;2.50;;;;;;;;;;6298560;28;20065;-81
2021/06/20 08:27:09;;;;;;;4.73;2.53;;;;;;;;;;6268898;28;20641;-80
2021/06/20 08:30:11;;;;;;;3.58;2.50;;;;;;;;;;6298448;28;20046;-80
2021/06/20 08:33:13;;;;;;;3.10;2.50;;;;;;;;;;6288663;28;20055;-81
2021/06/20 08:36:14;;;;;;;5.38;2.50;;;;;;;;;;6297445;28;20044;-81
2021/06/20 08:39:16;;;;;;;5.10;2.50;;;;;;;;;;6309109;28;20036;-82
2021/06/20 08:42:17;;;;;;;2.92;2.40;;;;;;;;;;6261314;28;20045;-82
2021/06/20 08:45:19;;;;;;;5.30;2.27;;;;;;;;;;6267161;28;20056;-82
2021/06/20 08:48:22;;;;;;;2.95;2.40;;;;;;;;;;6286735;28;20417;-82
2021/06/20 08:51:24;;;;;;;4.28;2.50;;;;;;;;;;6291741;28;20066;-82
2021/06/20 08:54:26;;;;;;;3.90;2.63;;;;;;;;;;6290979;28;20171;-83
2021/06/20 08:57:40;;;;;;;4.03;2.42;;;;;;;;;;6299544;28;20055;-81
2021/06/20 09:00:41;;;;;;;3.85;2.20;;;;;;;;;;6302089;28;20079;-81
2021/06/20 09:03:47;;;;;;;3.30;2.20;;;;;;;;;;6285769;28;20067;-82
2021/06/20 09:06:49;;;;;;;3.30;2.63;;;;;;;;;;6291080;28;20056;-80
2021/06/20 09:09:51;;;;;;;3.78;2.45;;;;;;;;;;6262954;28;20041;-81
2021/06/20 09:12:57;;;;;;;2.78;2.40;;;;;;;;;;6281470;28;20048;-82
2021/06/20 09:16:04;;;;;;;4.35;2.50;;;;;;;;;;6310954;28;20399;-83
2021/06/20 09:19:06;;;;;;;3.35;2.20;;;;;;;;;;6293930;28;20048;-87
2021/06/20 09:22:09;;;;;;;3.38;2.60;;;;;;;;;;6308200;28;20139;-81
2021/06/20 09:25:11;;;;;;;3.70;2.17;;;;;;;;;;6328996;28;20070;-82
2021/06/20 09:28:13;;;;;;;2.70;2.50;;;;;;;;;;6310750;28;20049;-82
2021/06/20 09:31:15;;;;;;;4.15;2.50;;;;;;;;;;6294881;28;20127;-82
2021/06/20 09:34:17;;;;;;;2.83;2.60;;;;;;;;;;6279995;28;20071;-81
2021/06/20 09:37:20;;;;;;;2.72;2.47;;;;;;;;;;6283874;28;20104;-83
2021/06/20 09:40:25;;;;;;;2.83;2.15;;;;;;;;;;6274426;28;20143;-83
2021/06/20 09:43:27;;;;;;;4.15;2.33;;;;;;;;;;6287240;28;20097;-84
2021/06/20 09:46:29;;;;;;;3.47;2.30;;;;;;;;;;6272330;28;20474;-83
2021/06/20 09:49:31;;;;;;;3.03;2.45;;;;;;;;;;6294442;28;20055;-85
2021/06/20 09:52:35;;;;;;;4.50;2.25;;;;;;;;;;6329012;28;20050;-84
2021/06/20 09:55:37;;;;;;;3.22;2.33;;;;;;;;;;6311171;28;20077;-83
2021/06/20 09:58:44;;;;;;;3.92;2.45;;;;;;;;;;6331963;28;20104;-84
2021/06/20 10:01:46;;;;;;;2.42;2.22;;;;;;;;;;6328694;28;20095;-86
2021/06/20 10:04:47;;;;;;;3.83;2.60;;;;;;;;;;6287626;28;20085;-84
2021/06/20 10:07:49;;;;;;;3.00;2.20;;;;;;;;;;6256677;28;20060;-84
2021/06/20 10:10:50;;;;;;;2.67;2.30;;;;;;;;;;6291340;28;20113;-84
2021/06/20 10:13:52;;;;;;;4.17;2.53;;;;;;;;;;6306555;28;20055;-80
2021/06/20 10:17:00;;;;;;;4.07;2.60;;;;;;;;;;6325724;28;20401;-83
2021/06/20 10:20:06;;;;;;;2.97;2.67;;;;;;;;;;6298397;28;20055;-83
2021/06/20 10:23:19;;;;;;;3.33;2.40;;;;;;;;;;6300439;28;20072;-83
2021/06/20 10:26:22;;;;;;;3.42;2.40;;;;;;;;;;6282629;28;20100;-83
2021/06/20 10:29:32;;;;;;;4.88;2.50;;;;;;;;;;6300918;28;20090;-83
2021/06/20 10:32:44;;;;;;;2.80;2.55;;;;;;;;;;6284028;28;20040;-84
2021/06/20 10:35:58;;;;;;;5.70;2.70;;;;;;;;;;6295479;28;20048;-83
2021/06/20 10:39:11;;;;;;;3.70;2.47;;;;;;;;;;6312194;28;20143;-84
2021/06/20 10:42:13;;;;;;;3.08;2.35;;;;;;;;;;6302076;28;20503;-85
2021/06/20 10:45:33;;;;;;;2.55;2.00;;;;;;;;;;6305183;28;20102;-84
2021/06/20 10:48:35;;;;;;;2.78;2.58;;;;;;;;;;6273067;28;20176;-83
2021/06/20 10:51:36;;;;;;;4.32;2.20;;;;;;;;;;6291935;28;20646;-85
2021/06/20 10:54:38;;;;;;;3.47;2.33;;;;;;;;;;6297449;28;20049;-84
2021/06/20 10:57:54;;;;;;;3.07;2.43;;;;;;;;;;6278143;28;20048;-84
2021/06/20 11:01:07;;;;;;;3.15;2.42;;;;;;;;;;6263277;28;20100;-84
2021/06/20 11:04:09;;;;;;;3.08;2.42;;;;;;;;;;6295286;28;20054;-84
2021/06/20 11:07:21;;;;;;;3.42;2.58;;;;;;;;;;6296465;28;20067;-83
2021/06/20 11:10:23;;;;;;;2.53;2.33;;;;;;;;;;6297670;28;20578;-82
2021/06/20 11:13:25;;;;;;;4.00;2.33;;;;;;;;;;6279799;28;20045;-81
2021/06/20 11:16:29;;;;;;;5.00;2.60;;;;;;;;;;6278865;28;20060;-83
2021/06/20 11:19:31;;;;;;;2.80;2.30;;;;;;;;;;6279681;28;20538;-82
2021/06/20 11:22:33;;;;;;;3.85;2.25;;;;;;;;;;6296000;28;20040;-83
2021/06/20 11:25:35;;;;;;;;;;;;;;;;;;6296142;28;20127;-83
2021/06/20 11:28:36;;;;;;;2.28;2.08;;;;;;;;;;6280807;28;19920;-81
2021/06/20 11:31:47;;;;;;;4.07;2.28;;;;;;;;;;6294828;28;20581;-82
2021/06/20 11:34:51;;;;;;;2.30;2.10;;;;;;;;;;6278595;28;20078;-84
2021/06/20 11:37:53;;;;;;;2.67;1.88;;;;;;;;;;6295692;28;20049;-84
2021/06/20 11:40:55;;;;;;;2.30;2.10;;;;;;;;;;6285395;28;20047;-83
2021/06/20 11:44:01;;;;;;;3.63;2.10;;;;;;;;;;6320972;28;20436;-83
2021/06/20 11:47:03;;;;;;;3.38;2.03;;;;;;;;;;6293299;28;20063;-82
2021/06/20 11:50:12;;;;;;;2.50;1.92;;;;;;;;;;6280547;28;20048;-84
2021/06/20 11:53:16;;;;;;;2.15;1.92;;;;;;;;;;6301181;28;20182;-83
2021/06/20 11:56:27;;;;;;;4.28;1.90;;;;;;;;;;6287397;28;20052;-83
2021/06/20 11:59:39;;;;;;;2.90;1.95;;;;;;;;;;6294457;28;20045;-83
2021/06/20 12:02:42;;;;;;;1.92;1.60;;;;;;;;;;6275391;28;20894;-83
2021/06/20 12:05:46;;;;;;;2.47;1.90;;;;;;;;;;6275069;28;20059;-83
2021/06/20 12:08:47;;;;;;;2.03;1.70;;;;;;;;;;6293622;28;20096;-83
2021/06/20 12:11:58;;;;;;;2.05;1.75;;;;;;;;;;6308207;28;20044;-83
2021/06/20 12:15:03;;;;;;;4.32;2.15;;;;;;;;;;6317883;28;20079;-84
2021/06/20 12:18:10;;;;;;;2.13;1.80;;;;;;;;;;6317501;28;20058;-82
2021/06/20 12:21:22;;;;;;;2.78;1.73;;;;;;;;;;6300552;28;20048;-82
2021/06/20 12:24:37;;;;;;;3.85;1.83;;;;;;;;;;6294185;28;20126;-81
2021/06/20 12:27:39;;;;;;;3.10;1.90;;;;;;;;;;6260789;28;20049;-84
2021/06/20 12:30:41;;;;;;;;;;;;;;;;;;6294903;28;20047;-83
2021/06/20 12:33:43;;;;;;;3.22;1.83;;;;;;;;;;6294861;28;20016;-80
2021/06/20 12:36:44;;;;;;;1.90;1.80;;;;;;;;;;6295208;28;20068;-82
2021/06/20 12:39:48;;;;;;;2.15;1.70;;;;;;;;;;6275471;28;20108;-81
2021/06/20 12:42:52;;;;;;;4.80;2.20;;;;;;;;;;6293198;28;20120;-81
2021/06/20 12:46:08;;;;;;;2.75;2.03;;;;;;;;;;6277717;28;20051;-82
2021/06/20 12:49:12;;;;;;;1.77;1.67;;;;;;;;;;6296596;28;20055;-81
2021/06/20 12:52:13;;;;;;;2.88;1.90;;;;;;;;;;6312918;28;20044;-83
2021/06/20 12:55:17;;;;;;;2.85;1.88;;;;;;;;;;6306150;28;91224;-82
2021/06/20 12:58:19;;;;;;;2.15;1.80;;;;;;;;;;6287333;28;20040;-82
2021/06/20 13:01:20;;;;;;;2.20;1.92;;;;;;;;;;6277473;28;20121;-81
2021/06/20 13:04:22;;;;;;;4.07;2.20;;;;;;;;;;6301979;28;20063;-82
2021/06/20 13:07:33;;;;;;;3.53;2.05;;;;;;;;;;6322457;28;20107;-82
2021/06/20 13:10:36;;;;;;;2.00;1.77;;;;;;;;;;6320381;28;20095;-82
2021/06/20 13:13:38;;;;;;;2.85;2.08;;;;;;;;;;6304772;28;20063;-81
2021/06/20 13:16:41;;;;;;;2.95;2.10;;;;;;;;;;6320396;28;20048;-81
2021/06/20 13:19:42;;;;;;;3.42;2.15;;;;;;;;;;6319649;28;20317;-81
2021/06/20 13:22:45;;;;;;;2.40;1.83;;;;;;;;;;6269064;28;20119;-81
2021/06/20 13:25:51;;;;;;;2.67;2.20;;;;;;;;;;6289561;28;20059;-80
2021/06/20 13:28:52;;;;;;;2.75;2.40;;;;;;;;;;6300551;28;20049;-82
2021/06/20 13:31:54;;;;;;;3.45;2.42;;;;;;;;;;6298295;28;20064;-81
2021/06/20 13:34:55;;;;;;;2.92;2.17;;;;;;;;;;6295568;28;20059;-80
2021/06/20 13:37:57;;;;;;;2.88;2.45;;;;;;;;;;6287677;28;20411;-81
2021/06/20 13:40:58;;;;;;;2.50;2.13;;;;;;;;;;6286966;28;20036;-80
2021/06/20 13:44:00;;;;;;;2.63;2.42;;;;;;;;;;6269803;28;20112;-82
2021/06/20 13:47:02;;;;;;;3.20;2.38;;;;;;;;;;6288329;28;20044;-81
2021/06/20 13:50:06;;;;;;;3.97;2.45;;;;;;;;;;6288895;28;20044;-80
2021/06/20 13:53:07;;;;;;;3.17;2.47;;;;;;;;;;6311868;28;20159;-80
2021/06/20 13:56:09;;;;;;;2.85;2.33;;;;;;;;;;6303689;28;20032;-80
2021/06/20 13:59:11;;;;;;;2.90;2.67;;;;;;;;;;6291338;28;20055;-80
2021/06/20 14:02:13;;;;;;;5.43;2.55;;;;;;;;;;6289292;28;20063;-79
2021/06/20 14:05:14;;;;;;;3.42;2.88;;;;;;;;;;6301835;28;20043;-80
2021/06/20 14:08:17;;;;;;;2.65;2.30;;;;;;;;;;6316127;28;20067;-81
2021/06/20 14:11:18;;;;;;;2.80;2.50;;;;;;;;;;6301414;28;20051;-83
2021/06/20 14:14:20;;;;;;;2.78;2.50;;;;;;;;;;6304338;28;20509;-83
2021/06/20 14:17:42;;;;;;;3.40;2.70;;;;;;;;;;6322075;28;20043;-82
2021/06/20 14:20:43;;;;;;;2.60;2.40;;;;;;;;;;6307641;28;20053;-82
2021/06/20 14:23:45;;;;;;;3.55;2.45;;;;;;;;;;6270301;28;20044;-85
2021/06/20 14:26:47;;;;;;;2.75;2.55;;;;;;;;;;6288123;28;20084;-85
2021/06/20 14:29:48;;;;;;;3.25;2.67;;;;;;;;;;6294231;28;20055;-82
2021/06/20 14:32:50;;;;;;;3.05;2.85;;;;;;;;;;6280877;28;20417;-87
2021/06/20 14:35:51;;;;;;;3.03;2.70;;;;;;;;;;6276743;28;20463;-84
2021/06/20 14:38:53;;;;;;;3.25;2.25;;;;;;;;;;6287197;28;20051;-83
2021/06/20 14:41:55;;;;;;;4.18;2.60;;;;;;;;;;6276629;28;20069;-82
2021/06/20 14:44:56;;;;;;;3.03;2.55;;;;;;;;;;6293255;28;20047;-83
2021/06/20 14:47:59;;;;;;;3.45;2.50;;;;;;;;;;6288737;28;20339;-78
2021/06/20 14:51:00;;;;;;;4.57;2.50;;;;;;;;;;6295101;28;20055;-79
2021/06/20 14:54:02;;;;;;;2.63;2.28;;;;;;;;;;6293832;28;20121;-80
2021/06/20 14:57:05;;;;;;;3.25;2.40;;;;;;;;;;6288793;28;20071;-79
2021/06/20 15:00:08;;;;;;;3.67;2.50;;;;;;;;;;6279169;28;20116;-79
2021/06/20 15:03:11;;;;;;;2.97;2.70;;;;;;;;;;6298317;28;20100;-78
2021/06/20 15:06:12;;;;;;;3.30;2.65;;;;;;;;;;6319263;28;20127;-76
2021/06/20 15:09:14;;;;;;;3.80;2.60;;;;;;;;;;6326843;28;20055;-82
2021/06/20 15:12:16;;;;;;;2.80;2.60;;;;;;;;;;6328545;28;20107;-80
2021/06/20 15:15:17;;;;;;;3.10;2.72;;;;;;;;;;6330076;28;20104;-80
2021/06/20 15:18:21;;;;;;;3.00;2.67;;;;;;;;;;6311936;28;20447;-79
2021/06/20 15:21:22;;;;;;;3.10;2.80;;;;;;;;;;6328265;28;20143;-79
2021/06/20 15:24:24;;;;;;;3.53;2.83;;;;;;;;;;6284461;28;20044;-80
2021/06/20 15:27:26;;;;;;;3.03;2.72;;;;;;;;;;6310670;28;20927;-79
2021/06/20 15:30:28;;;;;;;3.95;3.30;;;;;;;;;;6306821;28;20040;-80
2021/06/20 15:33:29;;;;;;;3.33;3.03;;;;;;;;;;6305361;28;20044;-79
2021/06/20 15:36:31;;;;;;;4.38;3.10;;;;;;;;;;6305688;28;20052;-80
2021/06/20 15:39:35;;;;;;;3.65;2.65;;;;;;;;;;6305447;28;20044;-79
2021/06/20 15:42:37;;;;;;;4.20;3.10;;;;;;;;;;6326977;28;20052;-80
2021/06/20 15:45:39;;;;;;;3.42;2.67;;;;;;;;;;6312854;28;20074;-81
2021/06/20 15:48:41;;;;;;;4.32;3.05;;;;;;;;;;6328715;28;20605;-80
2021/06/20 15:51:43;;;;;;;3.03;2.75;;;;;;;;;;6312269;28;20074;-80
2021/06/20 15:54:54;;;;;;;3.42;3.05;;;;;;;;;;6311681;28;20055;-82
2021/06/20 15:57:56;;;;;;;4.63;2.90;;;;;;;;;;6283113;28;20068;-83
2021/06/20 16:00:58;;;;;;;4.10;3.42;;;;;;;;;;6292539;28;20044;-83
2021/06/20 16:04:01;;;;;;;4.88;4.10;;;;;;;;;;6303503;28;20050;-83
2021/06/20 16:07:03;;;;;;;5.20;3.58;;;;;;;;;;6288046;28;20116;-81
2021/06/20 16:10:07;;;;;;;3.92;3.53;;;;;;;;;;6307680;28;20131;-81
2021/06/20 16:13:09;;;;;;;5.25;3.70;;;;;;;;;;6305707;28;20131;-80
2021/06/20 16:16:11;;;;;;;4.68;3.55;;;;;;;;;;6308306;28;20056;-80
2021/06/20 16:19:13;;;;;;;5.15;3.95;;;;;;;;;;6303172;28;20067;-80
2021/06/20 16:22:14;;;;;;;4.55;3.95;;;;;;;;;;6306532;28;20044;-80
2021/06/20 16:25:16;;;;;;;5.75;3.97;;;;;;;;;;6287163;28;20076;-81
2021/06/20 16:28:18;;;;;;;;;;;;;;;;;;6288007;28;20055;-80
2021/06/20 16:31:20;;;;;;;6.00;4.85;;;;;;;;;;6299576;28;19924;-81
2021/06/20 16:34:22;;;;;;;6.60;4.10;;;;;;;;;;6287644;28;20494;-81
2021/06/20 16:37:23;;;;;;;4.57;4.05;;;;;;;;;;6282856;28;20100;-82
2021/06/20 16:40:25;;;;;;;5.15;3.90;;;;;;;;;;6279024;28;20129;-82
2021/06/20 16:43:27;;;;;;;7.60;3.70;;;;;;;;;;6264641;28;20113;-81
2021/06/20 16:46:29;;;;;;;6.25;3.90;;;;;;;;;;6306251;28;20140;-83
2021/06/20 16:49:31;;;;;;;4.30;3.90;;;;;;;;;;6303816;28;20047;-82
2021/06/20 16:52:33;;;;;;;5.07;4.22;;;;;;;;;;6284678;28;20072;-82
2021/06/20 16:55:34;;;;;;;5.25;4.18;;;;;;;;;;6307795;28;20042;-81
2021/06/20 16:58:36;;;;;;;5.63;4.10;;;;;;;;;;6306873;28;20056;-82
2021/06/20 17:01:39;;;;;;;5.72;3.92;;;;;;;;;;6302747;28;20514;-82
2021/06/20 17:04:41;;;;;;;5.50;3.85;;;;;;;;;;6303557;28;20040;-82
2021/06/20 17:07:43;;;;;;;6.13;4.27;;;;;;;;;;6305104;28;20098;-82
2021/06/20 17:10:45;;;;;;;7.45;4.10;;;;;;;;;;6312286;28;20468;-82
2021/06/20 17:13:46;;;;;;;5.80;3.88;;;;;;;;;;6332145;28;20151;-82
2021/06/20 17:16:50;;;;;;;4.95;3.42;;;;;;;;;;6331771;28;20107;-82
2021/06/20 17:19:52;;;;;;;6.75;3.80;;;;;;;;;;6307176;28;20074;-81
2021/06/20 17:22:54;;;;;;;5.70;3.77;;;;;;;;;;6301644;28;20132;-82
2021/06/20 17:25:57;;;;;;;6.83;3.70;;;;;;;;;;6300996;28;20108;-82
2021/06/20 17:28:59;;;;;;;4.05;3.30;;;;;;;;;;6285329;28;20040;-82
2021/06/20 17:32:01;;;;;;;5.47;3.55;;;;;;;;;;6306685;28;20460;-81
2021/06/20 17:35:07;;;;;;;7.20;3.40;;;;;;;;;;6326260;28;20132;-81
2021/06/20 17:38:09;;;;;;;6.55;3.65;;;;;;;;;;6330751;28;20071;-82
2021/06/20 17:41:10;;;;;;;4.80;3.17;;;;;;;;;;6278534;28;20045;-81
2021/06/20 17:44:12;;;;;;;7.28;3.42;;;;;;;;;;6284587;28;20083;-81
2021/06/20 17:47:14;;;;;;;4.00;3.20;;;;;;;;;;6299713;28;20056;-80
2021/06/20 17:50:15;;;;;;;4.43;3.65;;;;;;;;;;6306685;28;20450;-81
2021/06/20 17:53:18;;;;;;;4.20;3.80;;;;;;;;;;6291487;28;20052;-81
2021/06/20 17:56:24;;;;;;;3.47;3.17;;;;;;;;;;6277573;28;20133;-80
2021/06/20 17:59:25;;;;;;;6.18;4.53;;;;;;;;;;6295695;28;20123;-81
2021/06/20 18:02:29;;;;;;;5.53;4.63;;;;;;;;;;6301909;28;20096;-87
2021/06/20 18:05:31;;;;;;;6.75;4.07;;;;;;;;;;6301129;28;20103;-85
2021/06/20 18:08:33;;;;;;;5.80;4.13;;;;;;;;;;6285276;28;20140;-84
2021/06/20 18:11:36;;;;;;;;;;;;;;;;;;6270563;28;20442;-85
2021/06/20 18:14:38;;;;;;;4.75;2.90;;;;;;;;;;6301051;28;19920;-80
2021/06/20 18:17:41;;;;;;;4.25;3.38;;;;;;;;;;6318904;28;20038;-81